Time;durP1;ratioP1;P1;durP2;ratioP2;P2;SDS_P1;SDS_P2;PMS_P1;PMS_P2;Temp;Humidity;BMP_temperature;BMP_pressure;BME280_temperature;BME280_humidity;BME280_pressure;Samples;Min_cycle;Max_cycle;Signal;HPM_P1;HPM_P2
2023/07/03 00:00:14;;;;;;;0.40;0.40;;;;;;;16.16;56.82;96618.19;29395;212;63005;-50
2023/07/03 00:00:45;;;;;;;0.40;0.40;;;;;;;16.18;56.98;96618.66;29395;224;63024;-49
2023/07/03 00:01:17;;;;;;;0.40;0.40;;;;;;;16.19;56.88;96620.28;29395;228;63007;-50
2023/07/03 00:01:49;;;;;;;0.40;0.40;;;;;;;16.20;56.73;96610.94;29394;211;64013;-59
2023/07/03 00:02:21;;;;;;;0.40;0.40;;;;;;;16.21;56.67;96613.31;29395;268;63000;-50
2023/07/03 00:02:52;;;;;;;0.40;0.40;;;;;;;16.23;56.62;96619.28;29395;202;63009;-51
2023/07/03 00:03:27;;;;;;;0.40;0.40;;;;;;;16.23;56.62;96616.53;29395;244;63004;-59
2023/07/03 00:04:00;;;;;;;0.40;0.40;;;;;;;16.24;56.70;96611.84;29395;206;63009;-60
2023/07/03 00:04:38;;;;;;;0.40;0.40;;;;;;;16.26;56.40;96615.06;29395;203;63004;-59
2023/07/03 00:05:10;;;;;;;0.40;0.40;;;;;;;16.28;56.27;96615.53;29395;228;63008;-59
2023/07/03 00:05:45;;;;;;;0.30;0.30;;;;;;;16.29;56.37;96617.09;29395;229;63008;-61
2023/07/03 00:06:16;;;;;;;0.30;0.30;;;;;;;16.30;56.38;96621.44;29395;207;63009;-49
2023/07/03 00:06:52;;;;;;;0.40;0.40;;;;;;;16.31;56.43;96612.09;29394;250;64009;-50
2023/07/03 00:07:24;;;;;;;0.30;0.30;;;;;;;16.30;56.47;96611.28;29394;212;64013;-50
2023/07/03 00:07:56;;;;;;;0.32;0.32;;;;;;;16.32;56.39;96611.75;29395;237;63005;-59
2023/07/03 00:08:27;;;;;;;0.40;0.40;;;;;;;16.33;56.56;96615.28;29394;209;64013;-59
2023/07/03 00:08:58;;;;;;;0.40;0.40;;;;;;;16.33;56.32;96620.78;29395;232;63005;-60
2023/07/03 00:09:30;;;;;;;0.40;0.40;;;;;;;16.33;56.46;96612.56;29394;259;64013;-50
2023/07/03 00:10:04;;;;;;;0.40;0.40;;;;;;;16.34;56.42;96611.41;29395;251;63004;-58
2023/07/03 00:10:35;;;;;;;0.40;0.40;;;;;;;16.35;56.38;96610.28;29395;204;63004;-60
2023/07/03 00:11:06;;;;;;;0.30;0.30;;;;;;;16.36;56.11;96615.44;29395;224;63009;-60
2023/07/03 00:11:40;;;;;;;0.30;0.30;;;;;;;16.36;56.14;96614.63;29395;287;63009;-50
2023/07/03 00:12:11;;;;;;;0.30;0.30;;;;;;;16.37;56.18;96616.22;29395;256;63004;-51
2023/07/03 00:12:44;;;;;;;0.30;0.30;;;;;;;16.38;56.31;96612.34;29395;212;63008;-61
2023/07/03 00:13:15;;;;;;;0.40;0.40;;;;;;;16.36;56.30;96609.94;29395;205;63004;-52
2023/07/03 00:13:47;;;;;;;0.30;0.30;;;;;;;16.37;56.35;96614.28;29395;237;63009;-50
2023/07/03 00:14:19;;;;;;;0.30;0.30;;;;;;;16.37;56.12;96614.28;29394;217;64009;-59
2023/07/03 00:14:51;;;;;;;0.40;0.40;;;;;;;16.38;56.44;96617.84;29395;235;63009;-59
2023/07/03 00:15:23;;;;;;;0.40;0.40;;;;;;;16.38;56.15;96618.63;29395;197;63005;-58
2023/07/03 00:16:02;;;;;;;0.40;0.40;;;;;;;16.38;56.17;96618.63;29395;297;63009;-61
2023/07/03 00:16:33;;;;;;;0.40;0.40;;;;;;;16.39;56.29;96622.16;29395;216;63005;-60
2023/07/03 00:17:07;;;;;;;0.40;0.40;;;;;;;16.39;56.35;96619.44;29395;386;63004;-60
2023/07/03 00:17:39;;;;;;;0.40;0.40;;;;;;;16.37;56.22;96619.75;29394;202;64009;-60
2023/07/03 00:18:13;;;;;;;0.40;0.40;;;;;;;16.38;56.43;96618.63;29395;303;63009;-60
2023/07/03 00:18:47;;;;;;;0.40;0.40;;;;;;;16.38;56.08;96617.84;29395;216;63007;-60
2023/07/03 00:19:26;;;;;;;0.40;0.40;;;;;;;16.37;56.19;96617.03;29395;203;63004;-59
2023/07/03 00:19:57;;;;;;;0.40;0.40;;;;;;;16.38;55.95;96617.84;29395;208;63012;-50
2023/07/03 00:20:32;;;;;;;0.35;0.35;;;;;;;16.38;55.81;96617.84;29395;233;63009;-60
2023/07/03 00:21:03;;;;;;;0.40;0.40;;;;;;;16.37;56.11;96618.97;29394;270;64021;-60
2023/07/03 00:21:38;;;;;;;0.40;0.40;;;;;;;16.37;56.03;96610.75;29395;216;63009;-50
2023/07/03 00:22:12;;;;;;;0.40;0.40;;;;;;;16.35;56.14;96619.31;29395;219;63015;-60
2023/07/03 00:22:46;;;;;;;0.40;0.40;;;;;;;16.35;56.17;96619.31;29395;226;63009;-51
2023/07/03 00:23:18;;;;;;;0.40;0.40;;;;;;;16.34;55.75;96614.16;29395;219;63005;-59
2023/07/03 00:23:49;;;;;;;0.40;0.40;;;;;;;16.34;55.95;96612.22;29395;226;63005;-59
2023/07/03 00:24:21;;;;;;;0.35;0.35;;;;;;;16.36;55.83;96617.37;29395;208;63008;-60
2023/07/03 00:24:52;;;;;;;0.40;0.40;;;;;;;16.38;55.69;96623.31;29395;283;63026;-59
2023/07/03 00:25:23;;;;;;;0.40;0.40;;;;;;;16.37;55.66;96616.22;29395;317;63004;-50
2023/07/03 00:25:58;;;;;;;0.40;0.40;;;;;;;16.37;55.98;96616.22;29394;266;64013;-50
2023/07/03 00:26:29;;;;;;;0.32;0.32;;;;;;;16.37;55.59;96616.22;29395;218;63004;-59
2023/07/03 00:27:00;;;;;;;0.40;0.40;;;;;;;16.37;55.61;96613.50;29395;277;63009;-60
2023/07/03 00:27:32;;;;;;;0.40;0.40;;;;;;;16.36;55.45;96614.63;29395;200;63011;-60
2023/07/03 00:28:03;;;;;;;0.30;0.30;;;;;;;16.35;55.75;96610.28;29395;245;63009;-51
2023/07/03 00:28:34;;;;;;;0.40;0.40;;;;;;;16.34;55.75;96620.44;29395;229;63005;-50
2023/07/03 00:29:06;;;;;;;0.40;0.40;;;;;;;16.35;55.45;96618.50;29395;229;63009;-58
2023/07/03 00:29:37;;;;;;;0.40;0.40;;;;;;;16.34;55.61;96623.19;29395;230;63005;-59
2023/07/03 00:30:11;;;;;;;0.40;0.40;;;;;;;16.36;56.12;96620.09;29394;222;64013;-60
2023/07/03 00:30:43;;;;;;;0.40;0.40;;;;;;;16.36;56.02;96609.16;29395;240;63005;-60
2023/07/03 00:31:15;;;;;;;0.40;0.40;;;;;;;16.38;55.84;96620.56;29394;197;64013;-50
2023/07/03 00:31:46;;;;;;;0.40;0.40;;;;;;;16.38;55.63;96609.63;29394;249;64005;-60
2023/07/03 00:32:17;;;;;;;0.30;0.30;;;;;;;16.38;55.57;96617.84;29395;215;63009;-60
2023/07/03 00:32:49;;;;;;;0.35;0.35;;;;;;;16.38;55.85;96612.34;29395;202;63004;-50
2023/07/03 00:33:21;;;;;;;0.30;0.30;;;;;;;16.37;56.31;96616.22;29395;223;63009;-59
2023/07/03 00:33:53;;;;;;;0.40;0.40;;;;;;;16.36;55.99;96620.91;29395;388;63004;-50
2023/07/03 00:34:25;;;;;;;0.30;0.30;;;;;;;16.36;55.85;96617.37;29394;223;64013;-59
2023/07/03 00:34:56;;;;;;;0.30;0.30;;;;;;;16.36;55.74;96620.09;29395;209;63004;-60
2023/07/03 00:35:27;;;;;;;0.40;0.40;;;;;;;16.36;55.56;96614.63;29395;207;63008;-60
2023/07/03 00:35:59;;;;;;;0.40;0.40;;;;;;;16.35;56.07;96619.31;29394;219;64009;-59
2023/07/03 00:36:30;;;;;;;0.40;0.40;;;;;;;16.33;56.08;96626.25;29395;344;63009;-59
2023/07/03 00:37:01;;;;;;;0.40;0.40;;;;;;;16.33;55.95;96626.25;29395;271;63005;-60
2023/07/03 00:37:33;;;;;;;0.40;0.40;;;;;;;16.32;56.35;96624.66;29395;197;63009;-59
2023/07/03 00:38:05;;;;;;;0.40;0.40;;;;;;;16.31;56.10;96623.03;29395;216;63005;-51
2023/07/03 00:38:36;;;;;;;0.40;0.40;;;;;;;16.29;56.17;96625.31;29395;214;63009;-60
2023/07/03 00:39:11;;;;;;;0.37;0.37;;;;;;;16.28;56.39;96623.75;29395;228;63004;-60
2023/07/03 00:39:42;;;;;;;0.30;0.30;;;;;;;16.28;56.58;96624.53;29395;229;63009;-50
2023/07/03 00:40:14;;;;;;;0.30;0.30;;;;;;;16.28;55.99;96630.03;29395;280;63004;-60
2023/07/03 00:40:45;;;;;;;0.30;0.30;;;;;;;16.28;56.25;96629.22;29395;286;63009;-51
2023/07/03 00:41:17;;;;;;;0.32;0.32;;;;;;;16.27;55.88;96619.41;29394;198;64022;-50
2023/07/03 00:41:49;;;;;;;0.40;0.40;;;;;;;16.28;55.43;96616.34;29395;293;63008;-51
2023/07/03 00:42:28;;;;;;;0.40;0.40;;;;;;;16.30;55.27;96619.50;29395;222;63004;-60
2023/07/03 00:43:01;;;;;;;0.40;0.40;;;;;;;16.31;55.51;96612.91;29395;237;63008;-60
2023/07/03 00:43:38;;;;;;;0.40;0.40;;;;;;;16.36;55.21;96609.16;29395;239;63005;-59
2023/07/03 00:44:12;;;;;;;0.40;0.40;;;;;;;16.37;55.01;96621.69;29395;237;63009;-60
2023/07/03 00:44:45;;;;;;;0.40;0.40;;;;;;;16.37;55.13;96616.22;29395;208;63005;-50
2023/07/03 00:45:20;;;;;;;0.40;0.40;;;;;;;16.36;55.01;96620.09;29395;246;63009;-59
2023/07/03 00:45:51;;;;;;;0.40;0.40;;;;;;;16.36;55.20;96617.37;29394;285;64009;-60
2023/07/03 00:46:23;;;;;;;0.40;0.40;;;;;;;16.36;55.18;96614.63;29395;227;63005;-59
2023/07/03 00:46:55;;;;;;;0.40;0.40;;;;;;;16.34;55.24;96614.16;29395;207;63004;-59
2023/07/03 00:47:27;;;;;;;0.40;0.40;;;;;;;16.33;55.31;96615.28;29395;293;63009;-59
2023/07/03 00:47:59;;;;;;;0.40;0.40;;;;;;;16.31;55.47;96617.56;29395;263;63004;-61
2023/07/03 00:48:31;;;;;;;0.40;0.40;;;;;;;16.31;55.37;96617.56;29395;255;63009;-59
2023/07/03 00:49:04;;;;;;;0.40;0.40;;;;;;;16.31;55.47;96617.56;29395;218;63004;-60
2023/07/03 00:49:37;;;;;;;0.40;0.40;;;;;;;16.30;55.67;96616.78;29394;400;64013;-59
2023/07/03 00:50:10;;;;;;;0.40;0.40;;;;;;;16.29;55.52;96615.16;29395;206;63005;-60
2023/07/03 00:50:41;;;;;;;0.30;0.30;;;;;;;16.29;55.67;96625.31;29395;202;63009;-51
2023/07/03 00:51:15;;;;;;;0.40;0.40;;;;;;;16.27;55.75;96616.66;29394;232;64009;-61
2023/07/03 00:51:54;;;;;;;0.40;0.40;;;;;;;16.27;55.59;96622.13;29395;208;63009;-59
2023/07/03 00:52:26;;;;;;;0.40;0.40;;;;;;;16.27;55.44;96616.66;29395;299;63005;-60
2023/07/03 00:53:01;;;;;;;0.40;0.40;;;;;;;16.28;55.34;96618.25;29395;249;63009;-50
2023/07/03 00:53:33;;;;;;;0.40;0.40;;;;;;;16.28;55.60;96615.53;29395;240;63005;-60
2023/07/03 00:54:04;;;;;;;0.30;0.30;;;;;;;16.28;55.69;96612.78;29395;239;63014;-50
2023/07/03 00:54:35;;;;;;;0.40;0.40;;;;;;;16.26;55.29;96615.88;29395;202;63004;-62
2023/07/03 00:55:10;;;;;;;0.37;0.37;;;;;;;16.26;55.59;96615.06;29395;202;63009;-61
2023/07/03 00:55:43;;;;;;;0.40;0.40;;;;;;;16.28;55.24;96612.78;29395;224;63004;-59
2023/07/03 00:56:14;;;;;;;0.40;0.40;;;;;;;16.28;55.39;96612.78;29394;228;64013;-50
2023/07/03 00:56:49;;;;;;;0.40;0.40;;;;;;;16.32;55.52;96613.69;29394;233;64008;-60
2023/07/03 00:57:25;;;;;;;0.40;0.40;;;;;;;16.34;55.55;96611.41;29395;209;63008;-61
2023/07/03 00:57:57;;;;;;;0.50;0.50;;;;;;;16.35;55.15;96607.53;29395;223;63005;-60
2023/07/03 00:58:28;;;;;;;0.37;0.37;;;;;;;16.36;55.03;96606.41;29395;223;63016;-50
2023/07/03 00:59:01;;;;;;;0.40;0.40;;;;;;;16.35;54.75;96608.34;29395;202;63013;-60
2023/07/03 00:59:34;;;;;;;0.37;0.37;;;;;;;16.34;54.93;96612.22;29395;394;63009;-60
2023/07/03 01:00:09;;;;;;;0.32;0.32;;;;;;;16.33;55.60;96613.34;29395;206;63005;-59
2023/07/03 01:01:07;;;;;;;0.40;0.40;;;;;;;16.33;55.62;96615.28;29395;211;63009;-59
2023/07/03 01:02:03;;;;;;;0.30;0.30;;;;;;;16.34;55.38;96616.91;29394;222;64009;-59
2023/07/03 01:02:40;;;;;;;0.40;0.40;;;;;;;16.34;55.37;96611.41;29395;198;63004;-59
2023/07/03 01:03:32;;;;;;;0.40;0.40;;;;;;;16.36;55.23;96614.63;29395;226;63004;-59
2023/07/03 01:04:15;;;;;;;0.40;0.40;;;;;;;16.36;55.51;96615.44;29394;258;64013;-51
2023/07/03 01:05:11;;;;;;;0.40;0.40;;;;;;;16.35;55.62;96613.81;29395;303;63004;-50
2023/07/03 01:05:47;;;;;;;0.40;0.40;;;;;;;16.36;55.53;96609.94;29395;287;63015;-59
2023/07/03 01:06:23;;;;;;;0.40;0.40;;;;;;;16.36;55.21;96609.16;29395;339;63018;-51
2023/07/03 01:07:03;;;;;;;0.40;0.40;;;;;;;16.37;55.30;96602.53;29394;188;64013;-60
2023/07/03 01:07:37;;;;;;;0.40;0.40;;;;;;;16.37;55.32;96599.78;29395;203;63005;-60
2023/07/03 01:08:11;;;;;;;0.40;0.40;;;;;;;16.36;55.79;96609.94;29395;191;63009;-51
2023/07/03 01:08:44;;;;;;;0.30;0.30;;;;;;;16.36;55.35;96609.94;29395;255;63005;-59
2023/07/03 01:09:19;;;;;;;0.40;0.40;;;;;;;16.37;55.53;96610.75;29395;204;63026;-50
2023/07/03 01:09:58;;;;;;;0.40;0.40;;;;;;;16.39;55.29;96608.47;29395;223;63004;-58
2023/07/03 01:10:33;;;;;;;0.40;0.40;;;;;;;16.39;55.07;96608.47;29395;227;63004;-60
2023/07/03 01:11:06;;;;;;;0.30;0.30;;;;;;;16.39;55.14;96611.22;29395;217;63004;-50
2023/07/03 01:11:39;;;;;;;0.40;0.40;;;;;;;16.38;55.30;96612.34;29395;252;63008;-59
2023/07/03 01:12:11;;;;;;;0.40;0.40;;;;;;;16.37;55.38;96610.75;29394;214;64008;-49
2023/07/03 01:12:45;;;;;;;0.40;0.40;;;;;;;16.38;55.20;96609.63;29395;197;63009;-60
2023/07/03 01:13:19;;;;;;;0.30;0.30;;;;;;;16.38;55.01;96606.88;29394;293;64009;-59
2023/07/03 01:13:58;;;;;;;0.40;0.40;;;;;;;16.38;55.06;96602.19;29395;214;63009;-59
2023/07/03 01:14:30;;;;;;;0.40;0.40;;;;;;;16.40;55.19;96610.09;29394;214;64005;-60
2023/07/03 01:15:08;;;;;;;0.40;0.40;;;;;;;16.39;55.35;96609.28;29394;269;64013;-59
2023/07/03 01:15:44;;;;;;;0.40;0.40;;;;;;;16.38;55.41;96613.16;29394;206;64009;-59
2023/07/03 01:16:17;;;;;;;0.40;0.40;;;;;;;16.38;55.41;96612.34;29395;380;63015;-59
2023/07/03 01:16:51;;;;;;;0.40;0.40;;;;;;;16.38;55.18;96609.63;29395;289;63004;-62
2023/07/03 01:17:25;;;;;;;0.40;0.40;;;;;;;16.38;54.97;96610.41;29395;229;63017;-60
2023/07/03 01:18:00;;;;;;;0.40;0.40;;;;;;;16.40;54.81;96610.09;29395;239;63013;-61
2023/07/03 01:18:33;;;;;;;0.40;0.40;;;;;;;16.41;54.78;96611.69;29395;202;63009;-60
2023/07/03 01:19:12;;;;;;;0.40;0.40;;;;;;;16.41;54.95;96608.94;29395;248;63004;-59
2023/07/03 01:19:48;;;;;;;0.40;0.40;;;;;;;16.39;55.33;96608.47;29395;199;63008;-51
2023/07/03 01:20:21;;;;;;;0.40;0.40;;;;;;;16.40;55.51;96610.09;29394;307;64009;-60
2023/07/03 01:21:09;;;;;;;0.40;0.40;;;;;;;16.40;55.19;96604.59;29395;273;63009;-59
2023/07/03 01:22:13;;;;;;;0.40;0.40;;;;;;;16.37;55.34;96610.75;29395;237;63005;-59
2023/07/03 01:23:21;;;;;;;0.40;0.40;;;;;;;16.36;55.53;96603.66;29394;228;64013;-58
2023/07/03 01:24:14;;;;;;;0.40;0.40;;;;;;;16.36;55.62;96611.88;29394;326;64009;-50
2023/07/03 01:24:53;;;;;;;0.40;0.40;;;;;;;16.37;55.41;96605.28;29395;329;63009;-58
2023/07/03 01:25:25;;;;;;;0.40;0.40;;;;;;;16.37;55.42;96610.75;29395;248;63004;-59
2023/07/03 01:25:58;;;;;;;0.40;0.40;;;;;;;16.35;55.60;96602.06;29395;227;63004;-60
2023/07/03 01:26:31;;;;;;;0.40;0.40;;;;;;;16.33;55.68;96607.09;29395;243;63004;-60
2023/07/03 01:27:08;;;;;;;0.40;0.40;;;;;;;16.33;55.77;96604.34;29395;225;63004;-59
2023/07/03 01:27:43;;;;;;;0.40;0.40;;;;;;;16.33;55.16;96599.66;29394;225;64009;-60
2023/07/03 01:28:19;;;;;;;0.40;0.40;;;;;;;16.30;55.08;96603.06;29395;219;63025;-60
2023/07/03 01:28:55;;;;;;;0.40;0.40;;;;;;;16.29;55.28;96597.94;29395;300;63005;-60
2023/07/03 01:29:26;;;;;;;0.40;0.40;;;;;;;16.32;55.21;96602.75;29395;227;63005;-61
2023/07/03 01:29:59;;;;;;;0.40;0.40;;;;;;;16.35;55.05;96596.59;29395;242;63008;-61
2023/07/03 01:30:33;;;;;;;0.40;0.40;;;;;;;16.37;55.08;96605.28;29395;220;63012;-51
2023/07/03 01:31:07;;;;;;;0.40;0.40;;;;;;;16.39;54.88;96608.47;29395;227;63005;-60
2023/07/03 01:31:41;;;;;;;0.40;0.40;;;;;;;16.38;55.16;96599.47;29395;224;63009;-58
2023/07/03 01:32:14;;;;;;;0.40;0.40;;;;;;;16.38;54.91;96602.19;29395;213;63018;-59
2023/07/03 01:32:49;;;;;;;0.40;0.40;;;;;;;16.40;55.14;96604.59;29394;219;64013;-60
2023/07/03 01:33:30;;;;;;;0.40;0.40;;;;;;;16.40;54.75;96599.94;29395;237;63004;-60
2023/07/03 01:34:05;;;;;;;0.32;0.32;;;;;;;16.41;54.76;96600.72;29417;214;63025;-60
2023/07/03 01:34:39;;;;;;;0.40;0.40;;;;;;;16.39;54.57;96598.31;29395;211;63004;-60
2023/07/03 01:35:12;;;;;;;0.40;0.40;;;;;;;16.39;54.95;96603.00;29395;196;63009;-60
2023/07/03 01:35:47;;;;;;;0.30;0.30;;;;;;;16.39;54.76;96595.59;29395;373;63005;-61
2023/07/03 01:36:20;;;;;;;0.40;0.40;;;;;;;16.41;54.93;96598.00;29395;280;63009;-61
2023/07/03 01:36:52;;;;;;;0.40;0.40;;;;;;;16.37;54.56;96599.78;29395;241;63005;-60
2023/07/03 01:37:26;;;;;;;0.30;0.30;;;;;;;16.39;54.80;96603.00;29395;231;63009;-61
2023/07/03 01:38:04;;;;;;;0.40;0.40;;;;;;;16.35;54.91;96597.41;29394;197;64009;-59
2023/07/03 01:38:36;;;;;;;0.40;0.40;;;;;;;16.35;54.72;96602.06;29394;331;64013;-62
2023/07/03 01:39:08;;;;;;;0.40;0.40;;;;;;;16.38;54.90;96601.41;29395;216;63005;-60
2023/07/03 01:39:43;;;;;;;0.40;0.40;;;;;;;16.38;55.15;96598.66;29395;210;63009;-59
2023/07/03 01:40:18;;;;;;;0.40;0.40;;;;;;;16.37;54.66;96599.78;29395;218;63004;-60
2023/07/03 01:40:50;;;;;;;0.40;0.40;;;;;;;16.35;55.02;96596.59;29395;230;63009;-61
2023/07/03 01:41:22;;;;;;;0.40;0.40;;;;;;;16.34;54.91;96600.47;29395;233;63004;-60
2023/07/03 01:41:54;;;;;;;0.30;0.30;;;;;;;16.33;55.43;96598.88;29395;260;63008;-59
2023/07/03 01:42:29;;;;;;;0.40;0.40;;;;;;;16.32;55.03;96600.81;29395;284;63004;-60
2023/07/03 01:43:01;;;;;;;0.40;0.40;;;;;;;16.32;55.20;96602.75;29395;248;63009;-60
2023/07/03 01:43:34;;;;;;;0.40;0.40;;;;;;;16.31;55.09;96596.47;29395;228;63005;-61
2023/07/03 01:44:05;;;;;;;0.40;0.40;;;;;;;16.30;55.25;96594.87;29394;237;64014;-61
2023/07/03 01:44:39;;;;;;;0.40;0.40;;;;;;;16.31;54.98;96595.66;29395;196;63005;-60
2023/07/03 01:45:10;;;;;;;0.30;0.30;;;;;;;16.31;55.22;96601.13;29395;221;63008;-61
2023/07/03 01:45:48;;;;;;;0.40;0.40;;;;;;;16.31;55.47;96598.41;29395;209;63005;-61
2023/07/03 01:46:20;;;;;;;0.40;0.40;;;;;;;16.29;55.39;96603.41;29395;199;63009;-59
2023/07/03 01:46:54;;;;;;;0.30;0.30;;;;;;;16.30;55.50;96596.81;29395;338;63004;-59
2023/07/03 01:47:28;;;;;;;0.40;0.40;;;;;;;16.29;55.41;96597.94;29395;337;63009;-60
2023/07/03 01:48:00;;;;;;;0.40;0.40;;;;;;;16.30;55.32;96594.87;29395;339;63004;-60
2023/07/03 01:48:32;;;;;;;0.40;0.40;;;;;;;16.33;55.31;96598.88;29394;338;64013;-59
2023/07/03 01:49:10;;;;;;;0.30;0.30;;;;;;;16.32;55.28;96592.59;29395;210;63004;-60
2023/07/03 01:49:42;;;;;;;0.35;0.35;;;;;;;16.32;55.43;96592.59;29395;203;63008;-59
2023/07/03 01:50:18;;;;;;;0.40;0.40;;;;;;;16.32;55.66;96592.59;29394;275;64009;-59
2023/07/03 01:50:49;;;;;;;0.40;0.40;;;;;;;16.33;55.72;96593.37;29395;268;63009;-61
2023/07/03 01:51:32;;;;;;;0.30;0.30;;;;;;;16.34;55.58;96592.25;29395;253;63005;-58
2023/07/03 01:52:21;;;;;;;0.40;0.40;;;;;;;16.33;55.57;96593.37;29395;356;63009;-60
2023/07/03 01:53:03;;;;;;;0.30;0.30;;;;;;;16.32;55.33;96589.06;29395;238;63005;-60
2023/07/03 01:53:53;;;;;;;0.40;0.40;;;;;;;16.34;55.38;96584.84;29395;203;63009;-62
2023/07/03 01:54:36;;;;;;;0.40;0.40;;;;;;;16.35;54.92;96591.12;29439;215;125004;-60
2023/07/03 01:55:45;;;;;;;0.40;0.40;;;;;;;16.35;55.17;96591.12;29371;206;64013;-60
2023/07/03 01:56:32;;;;;;;0.40;0.40;;;;;;;16.32;55.00;96589.06;29395;208;63007;-59
2023/07/03 01:57:05;;;;;;;0.40;0.40;;;;;;;16.33;55.35;96587.91;29395;394;63009;-60
2023/07/03 01:58:17;;;;;;;0.30;0.30;;;;;;;16.33;55.19;96585.97;29395;278;63005;-60
2023/07/03 01:59:00;;;;;;;0.30;0.30;;;;;;;16.35;55.00;96585.66;29416;204;64013;-59
2023/07/03 01:59:34;;;;;;;0.30;0.30;;;;;;;16.34;55.25;96584.03;29394;219;64009;-61
2023/07/03 02:00:16;;;;;;;0.40;0.40;;;;;;;16.32;55.02;96591.78;29394;250;64013;-61
2023/07/03 02:00:52;;;;;;;0.40;0.40;;;;;;;16.31;55.03;96592.94;29395;257;63005;-61
2023/07/03 02:01:34;;;;;;;0.40;0.40;;;;;;;16.29;55.21;96589.72;29395;217;63017;-60
2023/07/03 02:02:15;;;;;;;0.40;0.40;;;;;;;16.27;55.42;96592.03;29394;197;64009;-59
2023/07/03 02:02:48;;;;;;;;;;;;;;;16.25;55.36;96589.62;29996;983;6004;-58
2023/07/03 02:03:31;;;;;;;0.40;0.40;;;;;;;16.25;55.33;96586.87;29400;312;63009;-60
2023/07/03 02:04:13;;;;;;;0.40;0.40;;;;;;;16.27;55.44;96578.34;29395;221;63004;-59
2023/07/03 02:05:22;;;;;;;0.40;0.40;;;;;;;16.28;55.45;96580.75;29394;202;64014;-62
2023/07/03 02:05:59;;;;;;;0.90;0.90;;;;;;;16.29;55.31;96586.97;29395;286;63005;-59
2023/07/03 02:06:37;;;;;;;0.40;0.40;;;;;;;16.28;55.54;96588.94;29395;202;63009;-62
2023/07/03 02:07:11;;;;;;;0.40;0.40;;;;;;;16.27;55.47;96583.81;29395;218;63008;-61
2023/07/03 02:07:45;;;;;;;0.40;0.40;;;;;;;16.25;55.98;96586.09;29395;261;63009;-60
2023/07/03 02:08:18;;;;;;;0.30;0.30;;;;;;;16.23;55.51;96594.63;29394;204;64005;-60
2023/07/03 02:08:53;;;;;;;0.40;0.40;;;;;;;16.22;56.00;96584.03;29395;243;63009;-51
2023/07/03 02:09:25;;;;;;;0.40;0.40;;;;;;;16.21;55.75;96588.69;29395;285;63004;-60
2023/07/03 02:09:57;;;;;;;0.45;0.45;;;;;;;16.22;55.74;96584.03;29394;230;64013;-60
2023/07/03 02:10:30;;;;;;;0.40;0.40;;;;;;;16.24;55.69;96584.47;29394;318;64009;-58
2023/07/03 02:11:01;;;;;;;0.40;0.40;;;;;;;16.23;55.71;96583.69;29395;328;63009;-62
2023/07/03 02:11:34;;;;;;;0.40;0.40;;;;;;;16.23;55.53;96583.69;29395;263;63004;-62
2023/07/03 02:12:07;;;;;;;0.40;0.40;;;;;;;16.25;55.34;96586.87;29395;288;63009;-60
2023/07/03 02:12:41;;;;;;;0.40;0.40;;;;;;;16.27;55.62;96583.81;29395;254;63014;-61
2023/07/03 02:13:12;;;;;;;0.40;0.40;;;;;;;16.26;55.53;96579.47;29395;314;63009;-50
2023/07/03 02:13:43;;;;;;;0.40;0.40;;;;;;;16.24;55.66;96581.75;29395;222;63005;-60
2023/07/03 02:14:15;;;;;;;0.40;0.40;;;;;;;16.23;55.71;96582.88;29395;306;63018;-51
2023/07/03 02:14:46;;;;;;;0.40;0.40;;;;;;;16.22;55.59;96587.56;29395;211;63005;-61
2023/07/03 02:15:17;;;;;;;0.40;0.40;;;;;;;16.26;55.38;96587.69;29394;215;64013;-63
2023/07/03 02:15:49;;;;;;;0.40;0.40;;;;;;;16.27;55.32;96583.81;29395;262;63005;-61
2023/07/03 02:16:24;;;;;;;0.40;0.40;;;;;;;16.28;55.53;96585.41;29395;204;63009;-62
2023/07/03 02:16:55;;;;;;;0.40;0.40;;;;;;;16.28;55.38;96582.69;29395;268;63004;-59
2023/07/03 02:17:27;;;;;;;0.40;0.40;;;;;;;16.27;55.52;96586.56;29395;371;63009;-62
2023/07/03 02:17:58;;;;;;;0.40;0.40;;;;;;;16.31;55.34;96584.72;29395;348;63004;-60
2023/07/03 02:18:31;;;;;;;0.40;0.40;;;;;;;16.36;55.24;96581.78;29394;296;64013;-59
2023/07/03 02:19:02;;;;;;;0.40;0.40;;;;;;;16.35;55.25;96585.66;29395;308;63004;-60
2023/07/03 02:19:34;;;;;;;0.40;0.40;;;;;;;16.32;55.20;96586.31;29395;196;63008;-59
2023/07/03 02:20:14;;;;;;;0.40;0.40;;;;;;;16.30;55.63;96588.59;29395;222;63005;-59
2023/07/03 02:20:45;;;;;;;0.40;0.40;;;;;;;16.25;56.44;96591.56;29395;221;63013;-59
2023/07/03 02:21:17;;;;;;;0.40;0.40;;;;;;;16.25;56.01;96586.09;29395;216;63005;-60
2023/07/03 02:21:51;;;;;;;0.40;0.40;;;;;;;16.25;55.78;96586.09;29395;224;63009;-59
2023/07/03 02:22:23;;;;;;;0.40;0.40;;;;;;;16.25;55.71;96580.63;29395;209;63005;-60
2023/07/03 02:22:56;;;;;;;0.40;0.40;;;;;;;16.26;55.84;96593.97;29394;241;64013;-59
2023/07/03 02:23:27;;;;;;;0.40;0.40;;;;;;;16.23;56.49;96588.34;29395;202;63005;-61
2023/07/03 02:23:58;;;;;;;0.93;0.93;;;;;;;16.22;55.96;96584.03;29395;288;63023;-59
2023/07/03 02:24:30;;;;;;;0.43;0.43;;;;;;;16.23;55.92;96586.41;29395;203;63004;-58
2023/07/03 02:25:02;;;;;;;0.40;0.40;;;;;;;16.23;55.94;96582.88;29395;202;63009;-62
2023/07/03 02:25:35;;;;;;;0.40;0.40;;;;;;;16.22;56.05;96586.75;29395;218;63004;-50
2023/07/03 02:26:06;;;;;;;0.40;0.40;;;;;;;16.22;55.94;96586.75;29394;232;64013;-50
2023/07/03 02:26:41;;;;;;;0.40;0.40;;;;;;;16.24;56.01;96598.16;29395;199;63004;-60
2023/07/03 02:27:12;;;;;;;0.40;0.40;;;;;;;16.26;55.57;96587.69;29395;241;63009;-61
2023/07/03 02:27:44;;;;;;;0.40;0.40;;;;;;;16.26;55.57;96587.69;29395;215;63005;-52
2023/07/03 02:28:16;;;;;;;0.40;0.40;;;;;;;16.24;55.83;96585.28;29395;222;63009;-60
2023/07/03 02:28:47;;;;;;;0.30;0.30;;;;;;;16.25;55.88;96586.09;29394;242;64009;-60
2023/07/03 02:29:19;;;;;;;0.40;0.40;;;;;;;16.23;56.04;96585.63;29395;376;63018;-60
2023/07/03 02:29:54;;;;;;;0.30;0.30;;;;;;;16.22;56.12;96586.75;29395;262;63005;-52
2023/07/03 02:30:26;;;;;;;0.40;0.40;;;;;;;16.17;56.45;96589.69;29395;235;63009;-60
2023/07/03 02:30:58;;;;;;;0.40;0.40;;;;;;;16.17;56.24;96586.97;29395;250;63005;-60
2023/07/03 02:31:29;;;;;;;0.30;0.30;;;;;;;16.17;56.25;96587.75;29395;267;63009;-50
2023/07/03 02:32:02;;;;;;;0.30;0.30;;;;;;;16.18;56.26;96592.09;29394;210;64009;-60
2023/07/03 02:32:38;;;;;;;0.40;0.40;;;;;;;16.18;56.17;96588.56;29395;318;63009;-62
2023/07/03 02:33:11;;;;;;;0.40;0.40;;;;;;;16.20;56.06;96586.28;29395;212;63004;-60
2023/07/03 02:33:43;;;;;;;0.30;0.30;;;;;;;16.20;56.26;96586.28;29395;214;63009;-59
2023/07/03 02:34:15;;;;;;;0.40;0.40;;;;;;;16.19;56.24;96587.44;29395;220;63004;-58
2023/07/03 02:34:46;;;;;;;0.30;0.30;;;;;;;16.20;56.20;96594.50;29395;215;63009;-60
2023/07/03 02:35:17;;;;;;;0.40;0.40;;;;;;;16.21;56.30;96590.62;29395;335;63005;-60
2023/07/03 02:35:48;;;;;;;0.40;0.40;;;;;;;16.23;56.23;96585.63;29395;203;63009;-59
2023/07/03 02:36:20;;;;;;;0.40;0.40;;;;;;;16.23;56.18;96585.63;29395;335;63005;-57
2023/07/03 02:36:53;;;;;;;0.30;0.30;;;;;;;16.25;55.87;96592.38;29394;219;64013;-60
2023/07/03 02:37:25;;;;;;;0.40;0.40;;;;;;;16.27;55.85;96595.56;29395;208;63005;-59
2023/07/03 02:37:57;;;;;;;0.37;0.37;;;;;;;16.27;55.82;96592.03;29395;380;63009;-59
2023/07/03 02:38:28;;;;;;;0.30;0.30;;;;;;;16.26;56.21;96587.69;29395;341;63004;-60
2023/07/03 02:39:02;;;;;;;0.40;0.40;;;;;;;16.26;56.43;96590.44;29395;240;63009;-60
2023/07/03 02:39:34;;;;;;;0.30;0.30;;;;;;;16.25;56.20;96588.81;29395;219;63004;-58
2023/07/03 02:40:13;;;;;;;0.30;0.30;;;;;;;16.25;56.17;96591.56;29395;356;63009;-59
2023/07/03 02:40:47;;;;;;;0.30;0.30;;;;;;;16.27;56.01;96586.56;29395;210;63000;-60
2023/07/03 02:41:22;;;;;;;0.30;0.30;;;;;;;16.26;55.92;96590.44;29395;213;63008;-61
2023/07/03 02:41:54;;;;;;;0.30;0.30;;;;;;;16.26;56.01;96587.69;29394;253;64008;-58
2023/07/03 02:42:25;;;;;;;0.30;0.30;;;;;;;16.26;55.90;96582.22;29395;215;63009;-56
2023/07/03 02:42:57;;;;;;;0.30;0.30;;;;;;;16.26;56.14;96590.44;29395;236;63005;-60
2023/07/03 02:43:30;;;;;;;0.30;0.30;;;;;;;16.25;55.97;96586.09;29395;226;63009;-60
2023/07/03 02:44:02;;;;;;;0.30;0.30;;;;;;;16.24;56.67;96589.97;29394;262;64009;-60
2023/07/03 02:44:34;;;;;;;0.40;0.40;;;;;;;16.23;56.27;96585.63;29395;204;63009;-61
2023/07/03 02:45:07;;;;;;;0.82;0.82;;;;;;;16.24;56.34;96590.75;29395;252;63005;-59